createdAt,value
2023-04-18T04:02:45.740Z,8.12
2023-04-18T04:06:55.108Z,8.10
2023-04-18T04:10:57.910Z,8.09
2023-04-18T04:15:00.844Z,8.10
2023-04-18T04:19:05.561Z,8.12
2023-04-18T04:23:14.602Z,8.23
2023-04-18T04:27:20.450Z,8.21
2023-04-18T04:31:23.573Z,8.16
2023-04-18T04:35:28.341Z,8.18
2023-04-18T04:39:31.171Z,8.13
2023-04-18T04:43:49.793Z,8.27
2023-04-18T04:47:55.395Z,8.17
2023-04-18T04:52:01.440Z,8.22
2023-04-18T04:56:06.032Z,8.49
2023-04-18T05:00:11.101Z,8.54
2023-04-18T05:04:14.036Z,8.65
2023-04-18T05:08:18.379Z,8.63
2023-04-18T05:12:20.920Z,8.65
2023-04-18T05:16:23.506Z,8.80
2023-04-18T05:20:26.173Z,8.72
2023-04-18T05:24:31.732Z,8.78
2023-04-18T05:28:34.280Z,8.91
2023-04-18T05:32:38.953Z,8.87
2023-04-18T05:36:42.574Z,8.82
2023-04-18T05:40:46.489Z,8.74
2023-04-18T05:44:48.984Z,8.86
2023-04-18T05:48:51.516Z,9.10
2023-04-18T05:52:54.045Z,9.01
2023-04-18T05:56:58.411Z,9.14
2023-04-18T06:01:01.652Z,9.06
2023-04-18T06:05:04.474Z,9.29
2023-04-18T06:09:07.361Z,9.35
2023-04-18T06:13:11.228Z,9.20
2023-04-18T06:17:13.956Z,9.24
2023-04-18T06:21:16.525Z,9.31
2023-04-18T06:25:19.100Z,9.45
2023-04-18T06:29:23.207Z,9.47
2023-04-18T06:33:26.014Z,9.69
2023-04-18T06:37:28.650Z,9.87
2023-04-18T06:41:32.109Z,10.24
2023-04-18T06:45:35.918Z,10.34
2023-04-18T06:49:38.452Z,10.09
2023-04-18T06:53:41.044Z,9.97
2023-04-18T06:57:44.120Z,10.36
2023-04-18T07:01:48.953Z,10.28
2023-04-18T07:05:51.510Z,10.38
2023-04-18T07:09:54.135Z,10.54
2023-04-18T07:13:57.103Z,10.65
2023-04-18T07:18:01.077Z,10.69
2023-04-18T07:22:03.717Z,10.76
2023-04-18T07:26:06.459Z,10.90
2023-04-18T07:30:10.000Z,10.78
2023-04-18T07:34:15.256Z,10.77
2023-04-18T07:38:18.104Z,11.13
2023-04-18T07:42:20.780Z,11.14
2023-04-18T07:46:23.374Z,11.33
2023-04-18T07:50:27.358Z,10.92
2023-04-18T07:54:30.005Z,11.42
2023-04-18T07:58:32.540Z,11.28
2023-04-18T08:02:35.280Z,11.25
2023-04-18T08:06:39.419Z,11.60
2023-04-18T08:10:41.946Z,11.79
2023-04-18T08:14:44.513Z,12.09
2023-04-18T08:18:47.055Z,11.74
2023-04-18T08:26:59.905Z,11.59
2023-04-18T08:31:02.679Z,11.58
2023-04-18T08:35:05.677Z,11.61
2023-04-18T08:39:10.184Z,11.51
2023-04-18T08:43:14.187Z,11.56
2023-04-18T08:47:16.917Z,11.53
2023-04-18T08:51:19.542Z,11.74
2023-04-18T08:55:23.537Z,11.80
2023-04-18T08:59:26.395Z,11.90
2023-04-18T09:03:39.478Z,11.93
2023-04-18T09:07:42.956Z,11.92
2023-04-18T09:11:46.979Z,11.63
2023-04-18T09:15:55.071Z,11.87
2023-04-18T09:19:57.800Z,11.71
2023-04-18T09:24:20.629Z,11.37
2023-04-18T09:28:26.870Z,11.80
2023-04-18T09:32:30.694Z,11.37
2023-04-18T09:36:35.251Z,11.84
2023-04-18T09:40:37.789Z,11.65
2023-04-18T09:44:59.569Z,11.83
2023-04-18T09:49:02.774Z,12.24
2023-04-18T09:53:06.169Z,11.88
2023-04-18T09:57:09.877Z,12.24
2023-04-18T10:01:14.021Z,12.51
2023-04-18T10:05:20.760Z,12.26
2023-04-18T10:09:24.449Z,12.28
2023-04-18T10:13:27.508Z,12.33
2023-04-18T10:17:52.540Z,12.79
2023-04-18T10:22:03.212Z,12.92
2023-04-18T10:26:06.251Z,12.71
2023-04-18T10:30:09.813Z,12.60
2023-04-18T10:34:17.436Z,13.04
2023-04-18T10:38:23.860Z,12.89
2023-04-18T10:43:00.570Z,13.00
2023-04-18T10:47:23.952Z,12.96
2023-04-18T10:51:29.076Z,13.57
2023-04-18T10:55:32.138Z,13.76
2023-04-18T10:59:38.415Z,14.12
2023-04-18T11:03:41.272Z,14.41
2023-04-18T11:07:48.371Z,13.82
2023-04-18T11:12:04.117Z,13.78
2023-04-18T11:16:07.306Z,14.44
2023-04-18T11:20:12.740Z,15.10
2023-04-18T11:24:24.075Z,13.77
2023-04-18T11:28:28.454Z,13.44
2023-04-18T11:32:31.125Z,13.77
2023-04-18T11:36:35.082Z,13.95
2023-04-18T11:40:39.020Z,13.98
2023-04-18T11:44:43.846Z,13.85
2023-04-18T11:48:47.666Z,13.67
2023-04-18T11:52:51.450Z,13.95
2023-04-18T11:56:55.362Z,13.93
2023-04-18T12:00:57.954Z,14.02
2023-04-18T12:05:01.591Z,13.77
2023-04-18T12:09:06.219Z,14.05
2023-04-18T12:13:10.061Z,14.30
2023-04-18T12:17:13.931Z,14.49
2023-04-18T12:21:16.936Z,14.51
2023-04-18T12:25:24.214Z,14.26
2023-04-18T12:29:30.404Z,13.56
2023-04-18T12:33:33.055Z,13.23
2023-04-18T12:37:35.580Z,13.02
2023-04-18T12:41:38.122Z,13.44
2023-04-18T12:45:42.271Z,13.88
2023-04-18T12:49:44.812Z,12.84
2023-04-18T12:53:47.458Z,13.07
2023-04-18T12:57:51.820Z,12.74
2023-04-18T13:01:55.748Z,12.76
2023-04-18T13:05:58.297Z,12.97
2023-04-18T13:10:00.850Z,13.09
2023-04-18T13:14:03.446Z,12.95
2023-04-18T13:18:07.788Z,12.82
2023-04-18T13:22:10.542Z,12.82
2023-04-18T13:26:13.101Z,12.77
2023-04-18T13:30:15.720Z,13.15
2023-04-18T13:34:19.618Z,13.48
2023-04-18T13:38:22.140Z,13.26
2023-04-18T13:42:24.679Z,13.38
2023-04-18T13:46:27.604Z,13.27
2023-04-18T13:50:31.480Z,13.38
2023-04-18T13:54:34.248Z,13.64
2023-04-18T13:58:36.808Z,13.81
2023-04-18T14:02:39.531Z,14.23
2023-04-18T14:06:43.521Z,15.31
2023-04-18T14:10:46.029Z,15.20
2023-04-18T14:14:48.612Z,15.42
2023-04-18T14:18:51.124Z,14.84
2023-04-18T14:22:55.114Z,15.20
2023-04-18T14:26:57.651Z,15.70
2023-04-18T14:31:02.035Z,15.61
2023-04-18T14:35:07.082Z,15.56
2023-04-18T14:39:11.434Z,15.62
2023-04-18T14:43:14.087Z,15.82
2023-04-18T14:47:16.837Z,16.43
2023-04-18T14:51:19.478Z,16.33
2023-04-18T14:55:23.611Z,15.64
2023-04-18T14:59:27.892Z,15.23
2023-04-18T15:03:30.543Z,15.49
2023-04-18T15:07:33.232Z,15.07
2023-04-18T15:11:37.149Z,15.46
2023-04-18T15:15:40.073Z,15.47
2023-04-18T15:19:42.652Z,15.39
2023-04-18T15:23:45.270Z,15.37
2023-04-18T15:27:49.170Z,15.65
2023-04-18T15:31:51.816Z,15.51
2023-04-18T15:35:56.094Z,15.43
2023-04-18T15:39:58.590Z,15.34
2023-04-18T15:44:02.739Z,14.91
2023-04-18T15:48:05.460Z,14.63
2023-04-18T15:52:08.392Z,14.22
2023-04-18T15:56:10.991Z,14.10
2023-04-18T16:00:16.520Z,14.47
2023-04-18T16:04:19.090Z,14.13
2023-04-18T16:08:21.783Z,13.81
2023-04-18T16:12:24.331Z,14.18
2023-04-18T16:16:28.920Z,14.05
2023-04-18T16:20:33.351Z,13.78
2023-04-18T16:24:35.904Z,13.62
2023-04-18T16:28:38.584Z,13.40
2023-04-18T16:32:42.494Z,13.25
2023-04-18T16:36:45.067Z,13.25
2023-04-18T16:40:47.598Z,12.99
2023-04-18T16:44:50.132Z,12.86
2023-04-18T16:48:54.025Z,12.94
2023-04-18T16:52:56.521Z,13.03
2023-04-18T16:56:59.062Z,13.04
2023-04-18T17:01:02.424Z,12.87
2023-04-18T17:05:06.640Z,12.82
2023-04-18T17:09:09.213Z,12.81
2023-04-18T17:13:11.779Z,12.69
2023-04-18T17:17:14.293Z,12.67
2023-04-18T17:21:18.126Z,12.62
2023-04-18T17:25:21.499Z,12.66
2023-04-18T17:29:24.683Z,12.61
2023-04-18T17:33:27.869Z,12.63
2023-04-18T17:37:31.754Z,12.60
2023-04-18T17:41:37.132Z,12.82
2023-04-18T17:45:39.976Z,12.82
2023-04-18T17:49:42.526Z,12.51
2023-04-18T17:53:46.502Z,12.54
2023-04-18T17:57:49.013Z,12.58
2023-04-18T18:01:51.715Z,12.63
2023-04-18T18:05:55.053Z,12.55
2023-04-18T18:09:58.820Z,12.40
2023-04-18T18:14:01.424Z,12.39
2023-04-18T18:18:04.062Z,12.44
2023-04-18T18:22:07.046Z,12.41
2023-04-18T18:26:11.071Z,12.64
2023-04-18T18:30:14.336Z,12.81
2023-04-18T18:34:16.881Z,12.94
2023-04-18T18:38:19.627Z,12.96
2023-04-18T18:42:23.699Z,12.75
2023-04-18T18:46:27.183Z,12.69
2023-04-18T18:50:29.732Z,12.72
2023-04-18T18:54:32.397Z,12.70
2023-04-18T18:58:36.693Z,12.90
2023-04-18T19:02:39.589Z,12.60
2023-04-18T19:06:42.333Z,12.77
2023-04-18T19:10:44.942Z,12.86
2023-04-18T19:14:50.131Z,13.02
2023-04-18T19:18:53.118Z,12.85
2023-04-18T19:22:56.653Z,12.85
2023-04-18T19:26:59.696Z,12.75
2023-04-18T19:31:03.569Z,12.69
2023-04-18T19:35:07.083Z,12.71
2023-04-18T19:39:09.469Z,12.84
2023-04-18T19:43:12.836Z,12.81
2023-04-18T19:47:16.731Z,12.57
2023-04-18T19:51:19.251Z,12.44
2023-04-18T19:55:22.097Z,12.49
2023-04-18T19:59:24.646Z,12.70
2023-04-18T20:03:29.022Z,12.60
2023-04-18T20:07:32.159Z,12.68
2023-04-18T20:11:34.695Z,12.72
2023-04-18T20:15:37.239Z,12.65
2023-04-18T20:19:41.337Z,12.63
2023-04-18T20:23:45.180Z,12.54
2023-04-18T20:27:48.134Z,12.47
2023-04-18T20:31:50.638Z,12.48
2023-04-18T20:35:54.657Z,12.38
2023-04-18T20:39:58.675Z,12.47
2023-04-18T20:44:05.039Z,12.46
2023-04-18T20:48:08.235Z,12.49
2023-04-18T20:52:14.234Z,12.50
2023-04-18T20:56:16.824Z,12.50
